Brightway — 9V8755 — position and weather

sailwx.info

Track history (hours):
 
Tides and Currents Weather Stations Pressure Air Temp Water Temp Dewpoint Dewpoint Depression Visibility Wind Speed Wind Dir Waves Ship Positions

Brightway

Last reported at 2016-Apr-28 19:16 UTC. Time now 2016-May-01 06:06 UTC.
Position N 36°50' E 012°51'.

Length 274 m; draft 16.5 m.

Type: Tanker. MMSI: 566422000.

Date/timePositionNaut miles runAvg speedWind from/ knotsBaromVisibWave heightAir tempDewpointWater temp
2016-Apr-28 19:16N 36°50' E 012°51'913.1
2016-Apr-28 18:33N 36°45' E 013°02'1313.0
2016-Apr-28 17:33N 36°40' E 013°17'1313.1
2016-Apr-28 16:33N 36°35' E 013°32'1313.3
2016-Apr-28 15:33N 36°32' E 013°48'1413.7
2016-Apr-28 14:33N 36°26' E 014°03'1414.1
2016-Apr-28 13:33N 36°20' E 014°19'1414.3
2016-Apr-28 12:33N 36°13' E 014°35'1110.7
2016-Apr-28 11:34N 36°05' E 014°43'1 0.7
2016-Apr-28 10:33N 36°05' E 014°43'1 0.8
2016-Apr-28 09:34N 36°05' E 014°44'3 2.9
2016-Apr-28 08:33N 36°07' E 014°42'1010.5
2016-Apr-28 07:34N 36°16' E 014°37'3 2.7
2016-Apr-28 06:34N 36°19' E 014°36'1 0.5
2016-Apr-28 05:33N 36°18' E 014°36'0 0.5
2016-Apr-28 04:34N 36°18' E 014°37'1 0.5
2016-Apr-28 03:33N 36°18' E 014°37'1 0.6
2016-Apr-28 02:34N 36°18' E 014°38'1 0.6
2016-Apr-28 01:33N 36°17' E 014°38'1 0.7
2016-Apr-28 00:34N 36°17' E 014°39'1 0.7
2016-Apr-27 23:33N 36°16' E 014°39'1 0.7
2016-Apr-27 22:33N 36°16' E 014°40'1 0.9
2016-Apr-27 21:34N 36°15' E 014°41'1 0.8
2016-Apr-27 20:33N 36°14' E 014°42'1 0.8
2016-Apr-27 19:33N 36°14' E 014°43'1 0.7
2016-Apr-27 18:33N 36°14' E 014°43'1 0.7
2016-Apr-27 17:33N 36°13' E 014°44'1 0.6
2016-Apr-27 16:33N 36°13' E 014°45'0 0.4
2016-Apr-27 15:33N 36°13' E 014°45'0 0.2
2016-Apr-27 14:33N 36°13' E 014°46'0 0.2
2016-Apr-27 13:33N 36°14' E 014°46'0 0.2
2016-Apr-27 12:33N 36°14' E 014°46'0 0.2
2016-Apr-27 11:33N 36°14' E 014°45'0 0.4
2016-Apr-27 10:33N 36°14' E 014°45'0 0.3
2016-Apr-27 09:33N 36°13' E 014°45'0 0.4
2016-Apr-27 08:34N 36°13' E 014°44'1 0.7
2016-Apr-27 07:34N 36°12' E 014°44'1 0.6
2016-Apr-27 06:33N 36°12' E 014°44'1 0.7
2016-Apr-27 05:33N 36°12' E 014°44'0 0.4
2016-Apr-27 04:33N 36°12' E 014°44'1 0.9
2016-Apr-27 03:34N 36°11' E 014°43'1 0.6
2016-Apr-27 02:33N 36°11' E 014°43'0 0.1
2016-Apr-27 01:34N 36°11' E 014°42'0 0.0
2016-Apr-27 00:33N 36°11' E 014°42'0 0.1
2016-Apr-26 23:33N 36°11' E 014°43'0 0.3
2016-Apr-26 22:34N 36°11' E 014°43'2 2.0
2016-Apr-26 21:33N 36°09' E 014°45'4 4.5
2016-Apr-26 20:34N 36°05' E 014°46'5 4.5
2016-Apr-26 19:33N 36°03' E 014°51'4 4.3
2016-Apr-26 18:33N 36°02' E 014°56'8 3.8
2016-Apr-26 16:33N 35°59' E 015°05'7 1.0
2016-Apr-26 09:23N 35°55' E 014°57'3 1.7
2016-Apr-26 07:33N 35°54' E 014°54'0 0.1
2016-Apr-26 06:32N 35°54' E 014°54'0 0.0
2016-Apr-26 05:29N 35°54' E 014°54'0 0.0
2016-Apr-26 04:29N 35°54' E 014°54'0 0.0
2016-Apr-26 03:32N 35°54' E 014°54'0 0.0
2016-Apr-26 02:32N 35°54' E 014°54'0 0.0
2016-Apr-26 01:32N 35°54' E 014°54'0 0.0
2016-Apr-26 00:32N 35°54' E 014°54'0 0.0
2016-Apr-25 23:29N 35°54' E 014°54'0 0.0
2016-Apr-25 22:32N 35°54' E 014°54'0 0.0
2016-Apr-25 21:32N 35°54' E 014°54'0 0.0
2016-Apr-25 20:32N 35°54' E 014°54'0 0.0
2016-Apr-25 19:32N 35°54' E 014°54'0 0.0
2016-Apr-25 18:29N 35°54' E 014°54'0 0.0
2016-Apr-25 17:32N 35°54' E 014°54'0 0.0
2016-Apr-25 16:32N 35°54' E 014°54'0 0.0
2016-Apr-25 15:29N 35°54' E 014°54'0 0.0
2016-Apr-25 14:32N 35°54' E 014°54'0 0.0
2016-Apr-25 13:29N 35°54' E 014°54'0 0.0
2016-Apr-25 12:32N 35°54' E 014°54'0 0.0
2016-Apr-25 11:32N 35°54' E 014°54'0 0.0
2016-Apr-25 10:29N 35°54' E 014°54'0 0.0
2016-Apr-25 09:29N 35°54' E 014°54'0 0.0
2016-Apr-25 08:32N 35°54' E 014°54'0 0.0
2016-Apr-25 07:32N 35°54' E 014°54'0 0.0
2016-Apr-25 06:29N 35°54' E 014°54'0 0.0
2016-Apr-25 05:32N 35°54' E 014°54'0 0.0
2016-Apr-25 04:32N 35°54' E 014°54'0 0.0
2016-Apr-25 03:32N 35°54' E 014°54'0 0.0
2016-Apr-25 02:32N 35°54' E 014°54'0 0.0
2016-Apr-25 01:32N 35°54' E 014°54'0 0.0
2016-Apr-25 00:29N 35°54' E 014°54'0 0.0
2016-Apr-24 23:23N 35°54' E 014°54'0 0.0
2016-Apr-24 22:32N 35°54' E 014°54'0 0.0
2016-Apr-24 21:20N 35°54' E 014°54'0 0.0
2016-Apr-24 20:26N 35°54' E 014°54'0 0.0
2016-Apr-24 19:32N 35°54' E 014°54'0 0.0
2016-Apr-24 18:26N 35°54' E 014°54'0 0.0
2016-Apr-24 17:32N 35°54' E 014°54'0 0.0
2016-Apr-24 16:32N 35°54' E 014°54'0 0.0
2016-Apr-24 15:32N 35°54' E 014°54'0 0.0
2016-Apr-24 14:32N 35°54' E 014°54'0 0.5
2016-Apr-24 13:33N 35°54' E 014°54'2 2.3
2016-Apr-24 12:33N 35°55' E 014°57'1 0.8
2016-Apr-24 11:33N 35°55' E 014°56'3 3.1
2016-Apr-24 10:33N 35°52' E 014°56'4 3.7
2016-Apr-24 09:32N 35°50' E 014°60'6 0.7
2016-Apr-24 00:06N 35°47' E 015°06'2 1.1
2016-Apr-23 22:33N 35°47' E 015°04'1 0.8
2016-Apr-23 21:33N 35°47' E 015°03'1 0.7
2016-Apr-23 20:33N 35°47' E 015°03'1 0.6
2016-Apr-23 19:33N 35°48' E 015°02'1 0.6
2016-Apr-23 18:33N 35°48' E 015°01'1 0.6
2016-Apr-23 17:33N 35°48' E 015°01'1 0.8
2016-Apr-23 16:33N 35°49' E 015°01'1 0.8
2016-Apr-23 15:33N 35°50' E 015°00'1 0.8
2016-Apr-23 14:33N 35°51' E 014°60'0 0.4
2016-Apr-23 13:33N 35°51' E 014°60'2 1.9
2016-Apr-23 12:30N 35°52' E 014°57'2 1.7
2016-Apr-23 11:33N 35°53' E 014°57'0 0.5
2016-Apr-23 10:33N 35°53' E 014°56'5 4.5
2016-Apr-23 09:33N 35°51' E 015°01'5 4.6
2016-Apr-23 08:33N 35°48' E 015°05'1 1.2
2016-Apr-23 07:32N 35°47' E 015°05'4 3.8
2016-Apr-23 06:33N 35°49' E 015°02'4 4.3
2016-Apr-23 05:33N 35°52' E 014°58'3 3.4
2016-Apr-23 04:32N 35°55' E 014°55'1 1.1
2016-Apr-23 03:31N 35°54' E 014°54'0 0.1
2016-Apr-23 02:31N 35°54' E 014°54'0 0.0
2016-Apr-23 01:31N 35°54' E 014°54'0 0.0
2016-Apr-23 00:31N 35°54' E 014°54'0 0.0
2016-Apr-22 23:31N 35°54' E 014°54'0 0.0
2016-Apr-22 22:25N 35°54' E 014°54'0 0.0
2016-Apr-22 21:16N 35°54' E 014°54'0 0.0
2016-Apr-22 20:31N 35°54' E 014°54'0 0.0
2016-Apr-22 19:16N 35°54' E 014°54'0 0.0
2016-Apr-22 18:31N 35°54' E 014°54'0 0.0
2016-Apr-22 17:31N 35°54' E 014°54'0 0.0
2016-Apr-22 16:28N 35°54' E 014°54'0 0.0
2016-Apr-22 15:31N 35°54' E 014°54'0 0.0
2016-Apr-22 13:22N 35°54' E 014°54'0 0.0
2016-Apr-22 10:04N 35°54' E 014°54'0 0.0
2016-Apr-22 02:07N 35°54' E 014°54'0 0.0
2016-Apr-21 18:07N 35°54' E 014°54'0 0.2
2016-Apr-21 16:33N 35°54' E 014°54'3 3.3
2016-Apr-21 15:33N 35°53' E 014°58'2110.6
2016-Apr-21 13:33N 35°34' E 014°47'1312.9
2016-Apr-21 12:33N 35°32' E 014°31'1312.7
2016-Apr-21 11:33N 35°33' E 014°15'1413.7
2016-Apr-21 10:33N 35°45' E 014°07'6 5.6
2016-Apr-21 09:33N 35°50' E 014°03'3 3.1
2016-Apr-21 08:33N 35°48' E 014°00'4 3.8
2016-Apr-21 07:33N 35°48' E 014°05'2 2.1
2016-Apr-21 06:33N 35°50' E 014°05'1111.0
2016-Apr-21 05:33N 35°58' E 013°56'4 4.3
2016-Apr-21 04:33N 36°01' E 013°52'3 2.9
2016-Apr-21 03:33N 36°03' E 013°53'5 4.9
2016-Apr-21 02:33N 36°08' E 013°56'5 4.8
2016-Apr-21 01:33N 36°12' E 013°58'5 4.7
2016-Apr-21 00:33N 36°17' E 014°00'4 3.9
2016-Apr-20 23:33N 36°20' E 014°03'5 4.9
2016-Apr-20 22:33N 36°18' E 014°09'5 4.9
2016-Apr-20 21:33N 36°17' E 014°15'5 5.2
2016-Apr-20 20:33N 36°16' E 014°21'5 5.4
2016-Apr-20 19:33N 36°14' E 014°27'5 5.5
2016-Apr-20 18:33N 36°12' E 014°34'5 5.4
2016-Apr-20 17:33N 36°11' E 014°40'4 3.8
2016-Apr-20 16:32N 36°08' E 014°42'3 2.9
2016-Apr-20 15:33N 36°08' E 014°38'2 1.5
2016-Apr-20 14:33N 36°09' E 014°37'2 2.0
2016-Apr-20 13:33N 36°10' E 014°39'2 2.0
2016-Apr-20 12:33N 36°11' E 014°41'2 1.9
2016-Apr-20 11:32N 36°12' E 014°43'3 3.4
2016-Apr-20 10:32N 36°08' E 014°44'2 1.6
2016-Apr-20 09:33N 36°07' E 014°43'2 2.2
2016-Apr-20 08:33N 36°07' E 014°40'2 2.3
2016-Apr-20 07:33N 36°07' E 014°37'3 3.1
2016-Apr-20 06:33N 36°07' E 014°34'1 1.5
2016-Apr-20 05:33N 36°08' E 014°34'2 1.7
2016-Apr-20 04:33N 36°09' E 014°35'2 1.8
2016-Apr-20 03:33N 36°10' E 014°37'1 1.1
2016-Apr-20 02:33N 36°10' E 014°38'4 3.8
2016-Apr-20 01:33N 36°06' E 014°40'3 3.1
2016-Apr-20 00:33N 36°03' E 014°41'1 1.2
2016-Apr-19 23:33N 36°04' E 014°41'1 0.9
2016-Apr-19 22:33N 36°05' E 014°42'1 0.8
2016-Apr-19 21:33N 36°05' E 014°43'1 0.7
2016-Apr-19 20:33N 36°06' E 014°44'1 0.6
2016-Apr-19 19:33N 36°06' E 014°44'0 0.4
2016-Apr-19 18:33N 36°06' E 014°44'2 1.6
2016-Apr-19 17:33N 36°05' E 014°44'5 4.9
2016-Apr-19 16:33N 36°04' E 014°50'5 4.8
2016-Apr-19 15:33N 36°03' E 014°56'4 3.6
2016-Apr-19 14:33N 36°03' E 015°01'1 1.4
2016-Apr-19 13:33N 36°03' E 014°59'5 5.1
2016-Apr-19 12:33N 36°01' E 015°05'1 0.5
2016-Apr-19 11:33N 36°00' E 015°05'5 4.8
2016-Apr-19 10:33N 36°02' E 014°59'5 3.6
2016-Apr-19 09:05N 36°05' E 014°54'1 1.6
2016-Apr-19 08:33N 36°05' E 014°53'8 8.2
2016-Apr-19 07:32N 36°04' E 014°42'1 1.3
2016-Apr-19 06:33N 36°03' E 014°44'1 1.2
2016-Apr-19 05:33N 36°04' E 014°42'1 1.5
2016-Apr-19 04:33N 36°03' E 014°44'2 1.6
2016-Apr-19 03:33N 36°01' E 014°45'5 4.5
2016-Apr-19 02:33N 36°03' E 014°50'7 7.2
2016-Apr-19 01:33N 36°00' E 014°58'8 8.3
2016-Apr-19 00:33N 35°53' E 014°53'0 0.1
2016-Apr-18 23:30N 35°53' E 014°53'0 0.1
2016-Apr-18 22:33N 35°53' E 014°53'0 0.0
2016-Apr-18 21:30N 35°53' E 014°53'0 0.1
2016-Apr-18 20:33N 35°53' E 014°53'0 0.0
2016-Apr-18 19:33N 35°53' E 014°53'  
Track history (hours):
 
Tides and Currents Weather Stations Pressure Air Temp Water Temp Dewpoint Dewpoint Depression Visibility Wind Speed Wind Dir Waves Ship Positions

Brightway

Last reported at 2016-Apr-28 19:16 UTC. Time now 2016-May-01 06:06 UTC.
Position N 36°50' E 012°51'.

Length 274 m; draft 16.5 m.

Type: Tanker. MMSI: 566422000.

Date/timePositionNaut miles runAvg speedWind from/ knotsBaromVisibWave heightAir tempDewpointWater temp
2016-Apr-28 19:16N 36°50' E 012°51'913.1
2016-Apr-28 18:33N 36°45' E 013°02'1313.0
2016-Apr-28 17:33N 36°40' E 013°17'1313.1
2016-Apr-28 16:33N 36°35' E 013°32'1313.3
2016-Apr-28 15:33N 36°32' E 013°48'1413.7
2016-Apr-28 14:33N 36°26' E 014°03'1414.1
2016-Apr-28 13:33N 36°20' E 014°19'1414.3
2016-Apr-28 12:33N 36°13' E 014°35'1110.7
2016-Apr-28 11:34N 36°05' E 014°43'1 0.7
2016-Apr-28 10:33N 36°05' E 014°43'1 0.8
2016-Apr-28 09:34N 36°05' E 014°44'3 2.9
2016-Apr-28 08:33N 36°07' E 014°42'1010.5
2016-Apr-28 07:34N 36°16' E 014°37'3 2.7
2016-Apr-28 06:34N 36°19' E 014°36'1 0.5
2016-Apr-28 05:33N 36°18' E 014°36'0 0.5
2016-Apr-28 04:34N 36°18' E 014°37'1 0.5
2016-Apr-28 03:33N 36°18' E 014°37'1 0.6
2016-Apr-28 02:34N 36°18' E 014°38'1 0.6
2016-Apr-28 01:33N 36°17' E 014°38'1 0.7
2016-Apr-28 00:34N 36°17' E 014°39'1 0.7
2016-Apr-27 23:33N 36°16' E 014°39'1 0.7
2016-Apr-27 22:33N 36°16' E 014°40'1 0.9
2016-Apr-27 21:34N 36°15' E 014°41'1 0.8
2016-Apr-27 20:33N 36°14' E 014°42'1 0.8
2016-Apr-27 19:33N 36°14' E 014°43'1 0.7
2016-Apr-27 18:33N 36°14' E 014°43'1 0.7
2016-Apr-27 17:33N 36°13' E 014°44'1 0.6
2016-Apr-27 16:33N 36°13' E 014°45'0 0.4
2016-Apr-27 15:33N 36°13' E 014°45'0 0.2
2016-Apr-27 14:33N 36°13' E 014°46'0 0.2
2016-Apr-27 13:33N 36°14' E 014°46'0 0.2
2016-Apr-27 12:33N 36°14' E 014°46'0 0.2
2016-Apr-27 11:33N 36°14' E 014°45'0 0.4
2016-Apr-27 10:33N 36°14' E 014°45'0 0.3
2016-Apr-27 09:33N 36°13' E 014°45'0 0.4
2016-Apr-27 08:34N 36°13' E 014°44'1 0.7
2016-Apr-27 07:34N 36°12' E 014°44'1 0.6
2016-Apr-27 06:33N 36°12' E 014°44'1 0.7
2016-Apr-27 05:33N 36°12' E 014°44'0 0.4
2016-Apr-27 04:33N 36°12' E 014°44'1 0.9
2016-Apr-27 03:34N 36°11' E 014°43'1 0.6
2016-Apr-27 02:33N 36°11' E 014°43'0 0.1
2016-Apr-27 01:34N 36°11' E 014°42'0 0.0
2016-Apr-27 00:33N 36°11' E 014°42'0 0.1
2016-Apr-26 23:33N 36°11' E 014°43'0 0.3
2016-Apr-26 22:34N 36°11' E 014°43'2 2.0
2016-Apr-26 21:33N 36°09' E 014°45'4 4.5
2016-Apr-26 20:34N 36°05' E 014°46'5 4.5
2016-Apr-26 19:33N 36°03' E 014°51'4 4.3
2016-Apr-26 18:33N 36°02' E 014°56'8 3.8
2016-Apr-26 16:33N 35°59' E 015°05'7 1.0
2016-Apr-26 09:23N 35°55' E 014°57'3 1.7
2016-Apr-26 07:33N 35°54' E 014°54'0 0.1
2016-Apr-26 06:32N 35°54' E 014°54'0 0.0
2016-Apr-26 05:29N 35°54' E 014°54'0 0.0
2016-Apr-26 04:29N 35°54' E 014°54'0 0.0
2016-Apr-26 03:32N 35°54' E 014°54'0 0.0
2016-Apr-26 02:32N 35°54' E 014°54'0 0.0
2016-Apr-26 01:32N 35°54' E 014°54'0 0.0
2016-Apr-26 00:32N 35°54' E 014°54'0 0.0
2016-Apr-25 23:29N 35°54' E 014°54'0 0.0
2016-Apr-25 22:32N 35°54' E 014°54'0 0.0
2016-Apr-25 21:32N 35°54' E 014°54'0 0.0
2016-Apr-25 20:32N 35°54' E 014°54'0 0.0
2016-Apr-25 19:32N 35°54' E 014°54'0 0.0
2016-Apr-25 18:29N 35°54' E 014°54'0 0.0
2016-Apr-25 17:32N 35°54' E 014°54'0 0.0
2016-Apr-25 16:32N 35°54' E 014°54'0 0.0
2016-Apr-25 15:29N 35°54' E 014°54'0 0.0
2016-Apr-25 14:32N 35°54' E 014°54'0 0.0
2016-Apr-25 13:29N 35°54' E 014°54'0 0.0
2016-Apr-25 12:32N 35°54' E 014°54'0 0.0
2016-Apr-25 11:32N 35°54' E 014°54'0 0.0
2016-Apr-25 10:29N 35°54' E 014°54'0 0.0
2016-Apr-25 09:29N 35°54' E 014°54'0 0.0
2016-Apr-25 08:32N 35°54' E 014°54'0 0.0
2016-Apr-25 07:32N 35°54' E 014°54'0 0.0
2016-Apr-25 06:29N 35°54' E 014°54'0 0.0
2016-Apr-25 05:32N 35°54' E 014°54'0 0.0
2016-Apr-25 04:32N 35°54' E 014°54'0 0.0
2016-Apr-25 03:32N 35°54' E 014°54'0 0.0
2016-Apr-25 02:32N 35°54' E 014°54'0 0.0
2016-Apr-25 01:32N 35°54' E 014°54'0 0.0
2016-Apr-25 00:29N 35°54' E 014°54'0 0.0
2016-Apr-24 23:23N 35°54' E 014°54'0 0.0
2016-Apr-24 22:32N 35°54' E 014°54'0 0.0
2016-Apr-24 21:20N 35°54' E 014°54'0 0.0
2016-Apr-24 20:26N 35°54' E 014°54'0 0.0
2016-Apr-24 19:32N 35°54' E 014°54'0 0.0
2016-Apr-24 18:26N 35°54' E 014°54'0 0.0
2016-Apr-24 17:32N 35°54' E 014°54'0 0.0
2016-Apr-24 16:32N 35°54' E 014°54'0 0.0
2016-Apr-24 15:32N 35°54' E 014°54'0 0.0
2016-Apr-24 14:32N 35°54' E 014°54'0 0.5
2016-Apr-24 13:33N 35°54' E 014°54'2 2.3
2016-Apr-24 12:33N 35°55' E 014°57'1 0.8
2016-Apr-24 11:33N 35°55' E 014°56'3 3.1
2016-Apr-24 10:33N 35°52' E 014°56'4 3.7
2016-Apr-24 09:32N 35°50' E 014°60'6 0.7
2016-Apr-24 00:06N 35°47' E 015°06'2 1.1
2016-Apr-23 22:33N 35°47' E 015°04'1 0.8
2016-Apr-23 21:33N 35°47' E 015°03'1 0.7
2016-Apr-23 20:33N 35°47' E 015°03'1 0.6
2016-Apr-23 19:33N 35°48' E 015°02'1 0.6
2016-Apr-23 18:33N 35°48' E 015°01'1 0.6
2016-Apr-23 17:33N 35°48' E 015°01'1 0.8
2016-Apr-23 16:33N 35°49' E 015°01'1 0.8
2016-Apr-23 15:33N 35°50' E 015°00'1 0.8
2016-Apr-23 14:33N 35°51' E 014°60'0 0.4
2016-Apr-23 13:33N 35°51' E 014°60'2 1.9
2016-Apr-23 12:30N 35°52' E 014°57'2 1.7
2016-Apr-23 11:33N 35°53' E 014°57'0 0.5
2016-Apr-23 10:33N 35°53' E 014°56'5 4.5
2016-Apr-23 09:33N 35°51' E 015°01'5 4.6
2016-Apr-23 08:33N 35°48' E 015°05'1 1.2
2016-Apr-23 07:32N 35°47' E 015°05'4 3.8
2016-Apr-23 06:33N 35°49' E 015°02'4 4.3
2016-Apr-23 05:33N 35°52' E 014°58'3 3.4
2016-Apr-23 04:32N 35°55' E 014°55'1 1.1
2016-Apr-23 03:31N 35°54' E 014°54'0 0.1
2016-Apr-23 02:31N 35°54' E 014°54'0 0.0
2016-Apr-23 01:31N 35°54' E 014°54'0 0.0
2016-Apr-23 00:31N 35°54' E 014°54'0 0.0
2016-Apr-22 23:31N 35°54' E 014°54'0 0.0
2016-Apr-22 22:25N 35°54' E 014°54'0 0.0
2016-Apr-22 21:16N 35°54' E 014°54'0 0.0
2016-Apr-22 20:31N 35°54' E 014°54'0 0.0
2016-Apr-22 19:16N 35°54' E 014°54'0 0.0
2016-Apr-22 18:31N 35°54' E 014°54'0 0.0
2016-Apr-22 17:31N 35°54' E 014°54'0 0.0
2016-Apr-22 16:28N 35°54' E 014°54'0 0.0
2016-Apr-22 15:31N 35°54' E 014°54'0 0.0
2016-Apr-22 13:22N 35°54' E 014°54'0 0.0
2016-Apr-22 10:04N 35°54' E 014°54'0 0.0
2016-Apr-22 02:07N 35°54' E 014°54'0 0.0
2016-Apr-21 18:07N 35°54' E 014°54'0 0.2
2016-Apr-21 16:33N 35°54' E 014°54'3 3.3
2016-Apr-21 15:33N 35°53' E 014°58'2110.6
2016-Apr-21 13:33N 35°34' E 014°47'1312.9
2016-Apr-21 12:33N 35°32' E 014°31'1312.7
2016-Apr-21 11:33N 35°33' E 014°15'1413.7
2016-Apr-21 10:33N 35°45' E 014°07'6 5.6
2016-Apr-21 09:33N 35°50' E 014°03'3 3.1
2016-Apr-21 08:33N 35°48' E 014°00'4 3.8
2016-Apr-21 07:33N 35°48' E 014°05'2 2.1
2016-Apr-21 06:33N 35°50' E 014°05'1111.0
2016-Apr-21 05:33N 35°58' E 013°56'4 4.3
2016-Apr-21 04:33N 36°01' E 013°52'3 2.9
2016-Apr-21 03:33N 36°03' E 013°53'5 4.9
2016-Apr-21 02:33N 36°08' E 013°56'5 4.8
2016-Apr-21 01:33N 36°12' E 013°58'5 4.7
2016-Apr-21 00:33N 36°17' E 014°00'4 3.9
2016-Apr-20 23:33N 36°20' E 014°03'5 4.9
2016-Apr-20 22:33N 36°18' E 014°09'5 4.9
2016-Apr-20 21:33N 36°17' E 014°15'5 5.2
2016-Apr-20 20:33N 36°16' E 014°21'5 5.4
2016-Apr-20 19:33N 36°14' E 014°27'5 5.5
2016-Apr-20 18:33N 36°12' E 014°34'5 5.4
2016-Apr-20 17:33N 36°11' E 014°40'4 3.8
2016-Apr-20 16:32N 36°08' E 014°42'3 2.9
2016-Apr-20 15:33N 36°08' E 014°38'2 1.5
2016-Apr-20 14:33N 36°09' E 014°37'2 2.0
2016-Apr-20 13:33N 36°10' E 014°39'2 2.0
2016-Apr-20 12:33N 36°11' E 014°41'2 1.9
2016-Apr-20 11:32N 36°12' E 014°43'3 3.4
2016-Apr-20 10:32N 36°08' E 014°44'2 1.6
2016-Apr-20 09:33N 36°07' E 014°43'2 2.2
2016-Apr-20 08:33N 36°07' E 014°40'2 2.3
2016-Apr-20 07:33N 36°07' E 014°37'3 3.1
2016-Apr-20 06:33N 36°07' E 014°34'1 1.5
2016-Apr-20 05:33N 36°08' E 014°34'2 1.7
2016-Apr-20 04:33N 36°09' E 014°35'2 1.8
2016-Apr-20 03:33N 36°10' E 014°37'1 1.1
2016-Apr-20 02:33N 36°10' E 014°38'4 3.8
2016-Apr-20 01:33N 36°06' E 014°40'3 3.1
2016-Apr-20 00:33N 36°03' E 014°41'1 1.2
2016-Apr-19 23:33N 36°04' E 014°41'1 0.9
2016-Apr-19 22:33N 36°05' E 014°42'1 0.8
2016-Apr-19 21:33N 36°05' E 014°43'1 0.7
2016-Apr-19 20:33N 36°06' E 014°44'1 0.6
2016-Apr-19 19:33N 36°06' E 014°44'0 0.4
2016-Apr-19 18:33N 36°06' E 014°44'2 1.6
2016-Apr-19 17:33N 36°05' E 014°44'5 4.9
2016-Apr-19 16:33N 36°04' E 014°50'5 4.8
2016-Apr-19 15:33N 36°03' E 014°56'4 3.6
2016-Apr-19 14:33N 36°03' E 015°01'1 1.4
2016-Apr-19 13:33N 36°03' E 014°59'5 5.1
2016-Apr-19 12:33N 36°01' E 015°05'1 0.5
2016-Apr-19 11:33N 36°00' E 015°05'5 4.8
2016-Apr-19 10:33N 36°02' E 014°59'5 3.6
2016-Apr-19 09:05N 36°05' E 014°54'1 1.6
2016-Apr-19 08:33N 36°05' E 014°53'8 8.2
2016-Apr-19 07:32N 36°04' E 014°42'1 1.3
2016-Apr-19 06:33N 36°03' E 014°44'1 1.2
2016-Apr-19 05:33N 36°04' E 014°42'1 1.5
2016-Apr-19 04:33N 36°03' E 014°44'2 1.6
2016-Apr-19 03:33N 36°01' E 014°45'5 4.5
2016-Apr-19 02:33N 36°03' E 014°50'7 7.2
2016-Apr-19 01:33N 36°00' E 014°58'8 8.3
2016-Apr-19 00:33N 35°53' E 014°53'0 0.1
2016-Apr-18 23:30N 35°53' E 014°53'0 0.1
2016-Apr-18 22:33N 35°53' E 014°53'0 0.0
2016-Apr-18 21:30N 35°53' E 014°53'0 0.1
2016-Apr-18 20:33N 35°53' E 014°53'0 0.0
2016-Apr-18 19:33N 35°53' E 014°53'  

Dump ship's entire track history